createdAt,value
2023-05-24T01:55:20.291Z,82.71
2023-05-24T01:57:51.711Z,82.87
2023-05-24T02:00:20.803Z,83.08
2023-05-24T02:02:49.199Z,83.13
2023-05-24T02:05:17.471Z,83.03
2023-05-24T02:07:46.219Z,83.34
2023-05-24T02:10:14.331Z,83.47
2023-05-24T02:12:43.857Z,83.28
2023-05-24T02:15:14.877Z,83.62
2023-05-24T02:17:43.351Z,83.91
2023-05-24T02:20:13.414Z,83.58
2023-05-24T02:22:41.808Z,84.03
2023-05-24T02:25:10.347Z,83.97
2023-05-24T02:27:38.515Z,83.81
2023-05-24T02:30:09.516Z,83.83
2023-05-24T02:32:37.820Z,83.60
2023-05-24T02:35:07.694Z,83.68
2023-05-24T02:37:35.869Z,83.80
2023-05-24T02:40:05.297Z,83.79
2023-05-24T02:42:33.407Z,83.84
2023-05-24T02:45:01.504Z,83.69
2023-05-24T02:47:31.056Z,83.43
2023-05-24T02:49:59.202Z,83.55
2023-05-24T02:52:27.322Z,83.90
2023-05-24T02:54:55.475Z,83.75
2023-05-24T02:57:23.933Z,83.97
2023-05-24T02:59:52.972Z,84.19
2023-05-24T03:02:22.117Z,84.92
2023-05-24T03:04:51.614Z,84.83
2023-05-24T03:07:20.155Z,85.29
2023-05-24T03:09:48.315Z,85.17
2023-05-24T03:12:16.518Z,85.39
2023-05-24T03:14:44.634Z,85.73
2023-05-24T03:17:12.749Z,85.82
2023-05-24T03:19:40.943Z,86.14
2023-05-24T03:22:10.465Z,86.16
2023-05-24T03:24:38.859Z,86.07
2023-05-24T03:27:07.206Z,86.00
2023-05-24T03:29:35.393Z,86.13
2023-05-24T03:32:03.654Z,85.88
2023-05-24T03:34:31.889Z,86.08
2023-05-24T03:37:00.014Z,85.95
2023-05-24T03:39:29.549Z,85.35
2023-05-24T03:41:57.697Z,85.17
2023-05-24T03:44:25.853Z,85.16
2023-05-24T03:46:54.046Z,84.55
2023-05-24T03:49:22.196Z,84.75
2023-05-24T03:51:50.302Z,84.54
2023-05-24T03:54:18.463Z,84.56
2023-05-24T03:56:48.163Z,84.25
2023-05-24T03:59:16.335Z,84.12
2023-05-24T04:01:44.615Z,83.64
2023-05-24T04:04:12.788Z,84.01
2023-05-24T04:06:41.780Z,83.92
2023-05-24T04:09:10.165Z,84.22
2023-05-24T04:11:38.379Z,84.29
2023-05-24T04:14:08.065Z,84.17
2023-05-24T04:16:36.266Z,83.96
2023-05-24T04:19:04.558Z,83.90
2023-05-24T04:21:33.355Z,83.35
2023-05-24T04:24:01.618Z,83.58
2023-05-24T04:26:30.004Z,83.70
2023-05-24T04:28:58.306Z,83.72
2023-05-24T04:31:29.504Z,83.43
2023-05-24T04:33:59.494Z,83.58
2023-05-24T04:36:28.902Z,83.41
2023-05-24T04:39:02.831Z,83.48
2023-05-24T04:41:32.405Z,83.53
2023-05-24T04:44:00.824Z,83.76
2023-05-24T04:46:31.388Z,83.90
2023-05-24T04:48:59.589Z,83.76
2023-05-24T04:51:27.784Z,83.53
2023-05-24T04:53:56.052Z,83.48
2023-05-24T04:56:24.519Z,83.63
2023-05-24T04:58:52.875Z,83.38
2023-05-24T05:01:21.655Z,82.93
2023-05-24T05:03:51.367Z,82.89
2023-05-24T05:06:19.542Z,83.18
2023-05-24T05:08:47.797Z,83.61
2023-05-24T05:11:16.181Z,83.28
2023-05-24T05:13:44.356Z,83.02
2023-05-24T05:16:12.677Z,83.38
2023-05-24T05:18:41.125Z,83.72
2023-05-24T05:21:10.857Z,83.88
2023-05-24T05:23:39.872Z,83.28
2023-05-24T05:26:08.444Z,83.21
2023-05-24T05:28:36.591Z,83.02
2023-05-24T05:31:04.739Z,83.05
2023-05-24T05:33:33.332Z,82.34
2023-05-24T05:36:01.748Z,81.83
2023-05-24T05:38:31.253Z,80.80
2023-05-24T05:40:59.359Z,80.88
2023-05-24T05:43:29.031Z,81.25
2023-05-24T05:45:57.586Z,80.92
2023-05-24T05:48:26.770Z,80.92
2023-05-24T05:50:54.901Z,80.07
2023-05-24T05:53:23.068Z,79.58
2023-05-24T05:55:52.723Z,79.06
2023-05-24T05:58:21.061Z,79.33
2023-05-24T06:00:49.205Z,79.73
2023-05-24T06:03:17.547Z,80.03
2023-05-24T06:05:45.724Z,79.84
2023-05-24T06:08:13.850Z,79.79
2023-05-24T06:10:42.278Z,79.68
2023-05-24T06:13:11.987Z,79.75
2023-05-24T06:15:40.575Z,80.46
2023-05-24T06:18:08.723Z,80.63
2023-05-24T06:20:37.111Z,80.44
2023-05-24T06:23:06.097Z,80.33
2023-05-24T06:25:34.557Z,80.12
2023-05-24T06:28:02.714Z,79.89
2023-05-24T06:30:33.581Z,79.43
2023-05-24T06:33:02.517Z,78.47
2023-05-24T06:35:30.856Z,78.34
2023-05-24T06:37:59.055Z,77.70
2023-05-24T06:40:27.190Z,77.18
2023-05-24T06:42:55.306Z,75.85
2023-05-24T06:45:23.684Z,75.36
2023-05-24T06:47:53.276Z,74.40
2023-05-24T06:50:21.423Z,73.22
2023-05-24T06:52:49.709Z,72.93
2023-05-24T06:55:17.922Z,73.57
2023-05-24T06:57:46.069Z,73.63
2023-05-24T07:00:15.157Z,74.06
2023-05-24T07:02:43.380Z,74.07
2023-05-24T07:05:13.150Z,73.12
2023-05-24T07:07:41.786Z,73.75
2023-05-24T07:10:11.122Z,74.75
2023-05-24T07:12:39.367Z,74.98
2023-05-24T07:15:09.888Z,75.13
2023-05-24T07:17:38.215Z,75.67
2023-05-24T07:20:10.313Z,76.00
2023-05-24T07:22:39.864Z,76.14
2023-05-24T07:25:09.255Z,76.54
2023-05-24T07:27:37.762Z,76.94
2023-05-24T07:30:16.371Z,76.82
2023-05-24T07:32:52.634Z,76.37
2023-05-24T07:35:21.247Z,75.87
2023-05-24T07:37:50.875Z,75.68
2023-05-24T07:40:19.188Z,75.25
2023-05-24T07:42:47.899Z,75.10
2023-05-24T07:45:16.053Z,75.64
2023-05-24T07:47:44.256Z,76.18
2023-05-24T07:50:13.013Z,76.29
2023-05-24T07:52:41.176Z,76.21
2023-05-24T07:55:11.686Z,75.38
2023-05-24T07:57:39.803Z,75.42
2023-05-24T08:00:14.300Z,75.40
2023-05-24T08:02:42.757Z,75.35
2023-05-24T08:05:13.050Z,74.12
2023-05-24T08:07:41.830Z,73.96
2023-05-24T08:10:13.894Z,74.33
2023-05-24T08:12:42.408Z,72.77
2023-05-24T08:15:11.321Z,72.17
2023-05-24T08:17:39.633Z,72.13
2023-05-24T08:20:09.708Z,72.03
2023-05-24T08:22:38.281Z,71.60
2023-05-24T08:25:07.487Z,70.88
2023-05-24T08:27:37.214Z,70.86
2023-05-24T08:30:06.171Z,71.51
2023-05-24T08:32:34.357Z,71.24
2023-05-24T08:35:18.502Z,70.03
2023-05-24T08:37:49.280Z,69.09
2023-05-24T08:40:18.074Z,69.44
2023-05-24T08:42:49.079Z,68.75
2023-05-24T08:45:19.120Z,68.05
2023-05-24T08:47:48.030Z,67.59
2023-05-24T08:50:16.497Z,67.36
2023-05-24T08:52:46.421Z,66.99
2023-05-24T08:55:16.054Z,67.69
2023-05-24T08:57:45.073Z,67.54
2023-05-24T09:00:16.699Z,66.48
2023-05-24T09:02:46.373Z,63.95
2023-05-24T09:05:16.910Z,63.70
2023-05-24T09:07:46.430Z,63.94
2023-05-24T09:10:14.912Z,63.74
2023-05-24T09:12:48.728Z,64.66
2023-05-24T09:15:18.261Z,64.53
2023-05-24T09:17:46.506Z,63.55
2023-05-24T09:20:14.873Z,61.43
2023-05-24T09:22:44.226Z,60.31
2023-05-24T09:25:15.414Z,61.58
2023-05-24T09:27:50.011Z,60.61
2023-05-24T09:30:19.958Z,61.26
2023-05-24T09:32:58.275Z,61.71
2023-05-24T09:35:28.116Z,62.77
2023-05-24T09:37:59.950Z,64.04
2023-05-24T09:40:29.486Z,64.73
2023-05-24T09:43:09.065Z,63.74
2023-05-24T09:45:46.827Z,63.33
2023-05-24T09:48:16.662Z,61.14
2023-05-24T09:50:47.512Z,57.85
2023-05-24T09:53:18.708Z,57.83
2023-05-24T09:55:47.024Z,58.46
2023-05-24T09:58:16.854Z,57.21
2023-05-24T10:00:47.260Z,57.51
2023-05-24T10:03:16.213Z,57.16
2023-05-24T10:05:46.493Z,57.65
2023-05-24T10:08:15.117Z,56.78
2023-05-24T10:10:43.905Z,57.52
2023-05-24T10:13:12.754Z,57.86
2023-05-24T10:15:41.091Z,58.89
2023-05-24T10:18:13.913Z,59.63
2023-05-24T10:20:43.190Z,60.28
2023-05-24T10:23:12.318Z,59.07
2023-05-24T10:25:44.776Z,56.74
2023-05-24T10:28:14.918Z,56.35
2023-05-24T10:30:46.277Z,55.32
2023-05-24T10:33:16.741Z,53.29
2023-05-24T10:35:45.121Z,52.11
2023-05-24T10:38:13.294Z,51.46
2023-05-24T10:40:43.709Z,50.86
2023-05-24T10:43:11.917Z,49.97
2023-05-24T10:45:41.959Z,50.33
2023-05-24T10:48:32.682Z,49.64
2023-05-24T10:51:02.487Z,48.91
2023-05-24T10:53:39.745Z,48.29
2023-05-24T10:56:10.570Z,48.42
2023-05-24T10:58:47.249Z,46.29
2023-05-24T11:01:15.920Z,46.49
2023-05-24T11:03:45.645Z,46.05
2023-05-24T11:06:14.767Z,48.15
2023-05-24T11:08:45.069Z,49.46
2023-05-24T11:11:25.757Z,50.18
2023-05-24T11:13:57.874Z,51.10
2023-05-24T11:16:38.587Z,50.77
2023-05-24T11:19:16.118Z,49.92
2023-05-24T11:21:45.574Z,49.34
2023-05-24T11:24:14.160Z,48.57
2023-05-24T11:26:42.409Z,48.11
2023-05-24T11:29:10.579Z,47.60
2023-05-24T11:31:43.185Z,45.96
2023-05-24T11:34:12.223Z,45.81
2023-05-24T11:36:41.903Z,44.34
2023-05-24T11:39:10.313Z,43.52
2023-05-24T11:41:39.398Z,43.09
2023-05-24T11:44:09.293Z,44.90
2023-05-24T11:46:39.122Z,46.30
2023-05-24T11:49:07.837Z,47.07
2023-05-24T11:51:37.519Z,47.37
2023-05-24T11:54:07.293Z,48.62
2023-05-24T11:56:35.813Z,48.50
2023-05-24T11:59:24.248Z,48.47
2023-05-24T12:01:58.843Z,48.32
2023-05-24T12:04:28.011Z,47.37
2023-05-24T12:06:56.556Z,46.28
2023-05-24T12:09:26.588Z,44.07
2023-05-24T12:11:55.325Z,44.03
2023-05-24T12:14:26.264Z,43.76
2023-05-24T12:16:56.987Z,42.97
2023-05-24T12:21:58.712Z,42.92
2023-05-24T12:24:28.853Z,44.11
2023-05-24T12:27:01.168Z,45.41
2023-05-24T12:29:34.158Z,46.76
2023-05-24T12:32:02.369Z,45.61
2023-05-24T12:34:30.726Z,44.37
2023-05-24T12:36:58.925Z,44.07
2023-05-24T12:39:31.759Z,44.44
2023-05-24T12:42:01.778Z,43.80
2023-05-24T12:44:31.582Z,44.26
2023-05-24T12:47:00.121Z,44.64
2023-05-24T12:49:28.343Z,43.38
2023-05-24T12:51:57.787Z,44.13
2023-05-24T12:54:27.224Z,45.78
2023-05-24T12:56:59.830Z,45.62
2023-05-24T12:59:29.068Z,45.66
2023-05-24T13:01:57.452Z,44.72
2023-05-24T13:04:27.485Z,44.74
2023-05-24T13:06:56.340Z,44.91
2023-05-24T13:09:25.957Z,46.10
2023-05-24T13:11:55.161Z,47.21
2023-05-24T13:14:24.774Z,46.29
2023-05-24T13:16:53.164Z,46.55
2023-05-24T13:19:21.692Z,46.79
2023-05-24T13:21:49.918Z,46.26
2023-05-24T13:24:18.189Z,46.73
2023-05-24T13:26:47.070Z,45.09
2023-05-24T13:29:32.174Z,45.26
2023-05-24T13:32:04.440Z,45.65
2023-05-24T13:34:33.296Z,44.42
2023-05-24T13:37:01.661Z,42.61
2023-05-24T13:39:29.879Z,43.62
2023-05-24T13:41:58.189Z,43.97
2023-05-24T13:44:26.349Z,44.24
2023-05-24T13:46:56.519Z,43.87
2023-05-24T13:49:26.189Z,44.21
2023-05-24T13:51:57.213Z,44.57
2023-05-24T13:54:26.554Z,45.48
2023-05-24T13:56:57.361Z,46.00
2023-05-24T13:59:25.840Z,46.37
2023-05-24T14:01:54.102Z,44.74
2023-05-24T14:04:22.442Z,44.30
2023-05-24T14:06:52.389Z,44.94
2023-05-24T14:09:21.378Z,44.31
2023-05-24T14:11:49.699Z,43.76
2023-05-24T14:14:57.135Z,44.35
2023-05-24T14:17:06.402Z,45.53
2023-05-24T14:19:34.912Z,45.40
2023-05-24T14:22:04.610Z,44.69
2023-05-24T14:24:32.856Z,46.03
2023-05-24T14:27:01.563Z,45.16
2023-05-24T14:29:29.735Z,44.60
2023-05-24T14:31:57.947Z,43.47
2023-05-24T14:34:26.152Z,43.57
2023-05-24T14:36:55.365Z,43.74
2023-05-24T14:39:24.964Z,42.75
2023-05-24T14:41:53.131Z,43.11
2023-05-24T14:44:21.393Z,43.96
2023-05-24T14:46:49.571Z,44.50
2023-05-24T14:49:17.841Z,45.38
2023-05-24T14:51:48.746Z,45.33
2023-05-24T14:54:16.926Z,45.47
2023-05-24T14:56:46.492Z,45.85
2023-05-24T14:59:14.689Z,45.81
2023-05-24T15:01:43.041Z,45.80
2023-05-24T15:04:11.429Z,47.12
2023-05-24T15:06:40.004Z,46.16
2023-05-24T15:09:08.380Z,45.79
2023-05-24T15:11:36.658Z,46.18
2023-05-24T15:14:06.224Z,45.37
2023-05-24T15:16:34.437Z,44.97
2023-05-24T15:19:02.666Z,44.53
2023-05-24T15:21:30.916Z,44.49
2023-05-24T15:23:59.088Z,44.79
2023-05-24T15:26:27.524Z,45.80
2023-05-24T15:28:55.771Z,45.75
2023-05-24T15:31:25.346Z,45.50
2023-05-24T15:33:54.066Z,44.50
2023-05-24T15:36:22.182Z,44.67
2023-05-24T15:38:50.453Z,43.06
2023-05-24T15:41:18.622Z,43.85
2023-05-24T15:43:46.940Z,43.06
2023-05-24T15:46:15.134Z,43.15
2023-05-24T15:48:44.787Z,43.69
2023-05-24T15:53:43.994Z,44.88
2023-05-24T15:56:12.223Z,44.99
2023-05-24T15:58:40.443Z,43.81
2023-05-24T16:01:08.700Z,44.38
2023-05-24T16:03:38.169Z,42.98
2023-05-24T16:06:09.322Z,42.48
2023-05-24T16:08:37.497Z,43.05
2023-05-24T16:11:08.370Z,43.99
2023-05-24T16:13:36.561Z,43.94
2023-05-24T16:16:05.464Z,43.99
2023-05-24T16:18:35.407Z,44.30
2023-05-24T16:21:03.755Z,45.30
2023-05-24T16:23:33.374Z,45.35
2023-05-24T16:26:01.508Z,45.18
2023-05-24T16:28:29.702Z,45.29
2023-05-24T16:30:58.682Z,45.10
2023-05-24T16:33:26.989Z,44.27
2023-05-24T16:36:02.863Z,44.79
2023-05-24T16:38:33.786Z,46.15
2023-05-24T16:41:01.967Z,46.17
2023-05-24T16:43:30.382Z,45.63
2023-05-24T16:45:58.603Z,45.39
2023-05-24T16:48:28.759Z,45.30
2023-05-24T16:50:57.664Z,46.34
2023-05-24T16:53:27.182Z,46.97
2023-05-24T16:55:58.018Z,47.48
2023-05-24T16:58:29.230Z,46.29
2023-05-24T17:00:58.475Z,46.38
2023-05-24T17:03:29.395Z,46.93
2023-05-24T17:06:03.485Z,47.15
2023-05-24T17:08:34.057Z,46.79
2023-05-24T17:11:03.668Z,45.79
2023-05-24T17:13:31.974Z,46.38
2023-05-24T17:16:00.819Z,46.47
2023-05-24T17:18:29.468Z,47.79
2023-05-24T17:20:58.378Z,49.04
2023-05-24T17:23:27.400Z,51.38
2023-05-24T17:25:56.478Z,53.48
2023-05-24T17:28:28.271Z,55.68
2023-05-24T17:30:57.045Z,57.17
2023-05-24T17:33:26.038Z,58.22
2023-05-24T17:35:56.392Z,58.62
2023-05-24T17:38:25.842Z,58.94
2023-05-24T17:40:56.939Z,59.39
2023-05-24T17:43:29.126Z,59.96
2023-05-24T17:46:03.115Z,60.58
2023-05-24T17:48:32.379Z,61.66
2023-05-24T17:51:00.897Z,62.24
2023-05-24T17:53:32.071Z,62.36
2023-05-24T17:56:01.094Z,63.10
2023-05-24T17:58:35.545Z,63.50
2023-05-24T18:01:05.147Z,64.13
2023-05-24T18:03:33.981Z,64.53
2023-05-24T18:06:03.965Z,65.03
2023-05-24T18:08:32.669Z,65.86
2023-05-24T18:11:03.582Z,65.73
2023-05-24T18:13:33.180Z,65.67
2023-05-24T18:16:02.228Z,66.26
2023-05-24T18:18:30.576Z,66.58
2023-05-24T18:20:58.704Z,66.82
2023-05-24T18:23:27.010Z,67.22
2023-05-24T18:26:00.702Z,67.43
2023-05-24T18:28:29.985Z,68.05
2023-05-24T18:30:59.535Z,68.43
2023-05-24T18:33:27.732Z,68.65
2023-05-24T18:35:55.997Z,68.92
2023-05-24T18:38:24.281Z,69.04
2023-05-24T18:40:52.476Z,69.36
2023-05-24T18:43:20.713Z,70.01
2023-05-24T18:45:48.866Z,70.17
2023-05-24T18:48:26.043Z,70.30
2023-05-24T18:50:54.875Z,70.53
2023-05-24T18:53:23.087Z,70.61
2023-05-24T18:55:51.325Z,71.57
2023-05-24T18:58:19.565Z,71.49
2023-05-24T19:00:48.399Z,71.49
2023-05-24T19:03:16.753Z,71.72
2023-05-24T19:05:46.709Z,72.00
2023-05-24T19:08:15.157Z,72.33
2023-05-24T19:10:43.418Z,73.01
2023-05-24T19:13:11.606Z,72.41
2023-05-24T19:15:39.909Z,73.08
2023-05-24T19:18:08.136Z,73.44
2023-05-24T19:20:36.526Z,73.73
2023-05-24T19:23:06.555Z,73.56
2023-05-24T19:25:42.037Z,73.97
2023-05-24T19:28:11.087Z,74.11
2023-05-24T19:30:39.508Z,74.76
2023-05-24T19:33:07.867Z,75.28
2023-05-24T19:35:36.780Z,75.62
2023-05-24T19:38:06.399Z,76.04
2023-05-24T19:40:34.626Z,76.40
2023-05-24T19:43:02.802Z,76.84
2023-05-24T19:45:30.998Z,77.04
2023-05-24T19:47:59.407Z,77.52
2023-05-24T19:50:30.558Z,77.90
2023-05-24T19:52:59.609Z,77.99
2023-05-24T19:55:29.603Z,78.56
2023-05-24T19:57:57.902Z,78.44
2023-05-24T20:00:26.196Z,78.92
2023-05-24T20:02:54.981Z,79.32
2023-05-24T20:05:23.422Z,79.53
2023-05-24T20:07:52.848Z,79.88
2023-05-24T20:10:21.329Z,80.11
2023-05-24T20:12:51.157Z,80.25
2023-05-24T20:15:19.498Z,80.28
2023-05-24T20:17:48.529Z,80.59
2023-05-24T20:20:16.981Z,80.82
2023-05-24T20:22:45.285Z,80.56
2023-05-24T20:25:13.727Z,81.03
2023-05-24T20:27:42.963Z,81.01
2023-05-24T20:30:14.069Z,81.45
2023-05-24T20:32:42.578Z,81.71
2023-05-24T20:35:14.360Z,81.67
2023-05-24T20:37:42.802Z,81.71
2023-05-24T20:40:11.952Z,82.10
2023-05-24T20:42:40.198Z,82.15
2023-05-24T20:45:09.666Z,82.44
2023-05-24T20:47:39.391Z,82.27
2023-05-24T20:50:09.756Z,82.91
2023-05-24T20:52:38.116Z,83.21
2023-05-24T20:55:07.302Z,83.40
2023-05-24T20:57:35.820Z,83.33
2023-05-24T21:00:04.541Z,83.55
2023-05-24T21:02:33.014Z,84.26
2023-05-24T21:05:02.870Z,84.08
2023-05-24T21:07:31.120Z,84.52
2023-05-24T21:09:59.395Z,84.78
2023-05-24T21:12:27.719Z,85.00
2023-05-24T21:14:56.069Z,85.26
2023-05-24T21:17:24.413Z,85.94
2023-05-24T21:19:52.641Z,86.37
2023-05-24T21:22:22.284Z,86.21
2023-05-24T21:24:50.548Z,86.52
2023-05-24T21:27:19.945Z,86.61
2023-05-24T21:29:48.721Z,86.77
2023-05-24T21:32:17.141Z,86.55
2023-05-24T21:34:45.454Z,86.05
2023-05-24T21:37:13.777Z,86.01
2023-05-24T21:39:44.451Z,85.72
2023-05-24T21:42:12.864Z,85.91
2023-05-24T21:44:41.196Z,85.78
2023-05-24T21:47:09.595Z,85.48
2023-05-24T21:49:38.056Z,85.84
2023-05-24T21:52:06.400Z,85.71
2023-05-24T21:54:34.740Z,85.61
2023-05-24T21:57:04.584Z,85.78
2023-05-24T21:59:32.824Z,85.72
2023-05-24T22:02:01.322Z,85.77
2023-05-24T22:04:29.721Z,85.42
2023-05-24T22:06:57.967Z,85.38
2023-05-24T22:09:26.296Z,85.28
2023-05-24T22:11:54.700Z,85.50
2023-05-24T22:14:24.487Z,85.51
2023-05-24T22:16:52.888Z,85.17
2023-05-24T22:19:38.857Z,85.50
2023-05-24T22:22:08.877Z,85.08
2023-05-24T22:24:37.399Z,84.99
2023-05-24T22:27:09.689Z,85.36
2023-05-24T22:29:39.523Z,85.37
2023-05-24T22:32:07.909Z,85.07
2023-05-24T22:34:36.360Z,85.00
2023-05-24T22:37:05.071Z,85.41
2023-05-24T22:39:33.611Z,85.20
2023-05-24T22:42:01.889Z,85.40
2023-05-24T22:44:30.217Z,85.47
2023-05-24T22:47:02.088Z,85.58
2023-05-24T22:49:34.392Z,85.38
2023-05-24T22:52:03.025Z,85.52
2023-05-24T22:54:31.349Z,85.38
2023-05-24T22:56:59.713Z,85.37
2023-05-24T22:59:29.076Z,85.52
2023-05-24T23:01:59.700Z,85.62
2023-05-24T23:04:28.992Z,85.66
2023-05-24T23:06:57.778Z,85.21
2023-05-24T23:09:34.190Z,85.16
2023-05-24T23:12:02.726Z,85.53
2023-05-24T23:14:31.564Z,85.15
2023-05-24T23:17:02.811Z,85.36
2023-05-24T23:19:32.099Z,85.12
2023-05-24T23:22:00.600Z,85.09
2023-05-24T23:24:28.950Z,85.10
2023-05-24T23:26:57.207Z,85.63
2023-05-24T23:29:25.563Z,85.20
2023-05-24T23:31:53.898Z,85.11
2023-05-24T23:34:23.644Z,84.46
2023-05-24T23:36:51.925Z,84.52
2023-05-24T23:39:20.535Z,84.14
2023-05-24T23:41:48.881Z,84.20
2023-05-24T23:44:17.312Z,83.95
2023-05-24T23:46:45.763Z,83.93
2023-05-24T23:49:13.946Z,84.13
2023-05-24T23:51:43.515Z,83.98
2023-05-24T23:54:14.662Z,84.05
2023-05-24T23:56:43.261Z,83.90
2023-05-24T23:59:11.731Z,84.25
